sensor_id;sensor_type;location;lat;lon;timestamp;P1;durP1;ratioP1;P2;durP2;ratioP2
78744;SDS011;68064;53.100;8.824;2023-05-10T00:00:25;6.07;;;1.02;;
78744;SDS011;68064;53.100;8.824;2023-05-10T00:01:26;5.55;;;0.90;;
78744;SDS011;68064;53.100;8.824;2023-05-10T00:02:28;4.85;;;0.90;;
78744;SDS011;68064;53.100;8.824;2023-05-10T00:03:30;5.63;;;0.90;;
78744;SDS011;68064;53.100;8.824;2023-05-10T00:04:31;5.95;;;1.02;;
78744;SDS011;68064;53.100;8.824;2023-05-10T00:05:32;5.55;;;1.05;;
78744;SDS011;68064;53.100;8.824;2023-05-10T00:07:34;5.35;;;1.23;;
78744;SDS011;68064;53.100;8.824;2023-05-10T00:09:36;5.35;;;1.10;;
78744;SDS011;68064;53.100;8.824;2023-05-10T00:10:37;8.82;;;0.88;;
78744;SDS011;68064;53.100;8.824;2023-05-10T00:11:38;5.55;;;0.77;;
78744;SDS011;68064;53.100;8.824;2023-05-10T00:13:40;5.18;;;0.73;;
78744;SDS011;68064;53.100;8.824;2023-05-10T00:14:41;4.55;;;0.73;;
78744;SDS011;68064;53.100;8.824;2023-05-10T00:15:42;4.75;;;0.90;;
78744;SDS011;68064;53.100;8.824;2023-05-10T00:16:43;6.00;;;1.08;;
78744;SDS011;68064;53.100;8.824;2023-05-10T00:18:47;5.05;;;0.60;;
78744;SDS011;68064;53.100;8.824;2023-05-10T00:19:48;6.18;;;0.98;;
78744;SDS011;68064;53.100;8.824;2023-05-10T00:20:49;5.47;;;0.70;;
78744;SDS011;68064;53.100;8.824;2023-05-10T00:22:51;5.10;;;0.75;;
78744;SDS011;68064;53.100;8.824;2023-05-10T00:24:52;5.88;;;0.80;;
78744;SDS011;68064;53.100;8.824;2023-05-10T00:25:53;5.97;;;0.90;;
78744;SDS011;68064;53.100;8.824;2023-05-10T00:26:54;6.53;;;1.08;;
78744;SDS011;68064;53.100;8.824;2023-05-10T00:27:56;6.43;;;0.80;;
78744;SDS011;68064;53.100;8.824;2023-05-10T00:28:57;4.13;;;0.52;;
78744;SDS011;68064;53.100;8.824;2023-05-10T00:29:58;4.07;;;0.65;;
78744;SDS011;68064;53.100;8.824;2023-05-10T00:30:59;4.28;;;0.52;;
78744;SDS011;68064;53.100;8.824;2023-05-10T00:32:00;4.85;;;0.70;;
78744;SDS011;68064;53.100;8.824;2023-05-10T00:33:01;4.22;;;0.63;;
78744;SDS011;68064;53.100;8.824;2023-05-10T00:34:03;4.63;;;0.50;;
78744;SDS011;68064;53.100;8.824;2023-05-10T00:35:04;4.78;;;0.60;;
78744;SDS011;68064;53.100;8.824;2023-05-10T00:36:06;7.30;;;0.80;;
78744;SDS011;68064;53.100;8.824;2023-05-10T00:37:08;4.43;;;0.85;;
78744;SDS011;68064;53.100;8.824;2023-05-10T00:39:09;5.68;;;0.50;;
78744;SDS011;68064;53.100;8.824;2023-05-10T00:40:11;4.68;;;0.60;;
78744;SDS011;68064;53.100;8.824;2023-05-10T00:41:12;3.97;;;0.55;;
78744;SDS011;68064;53.100;8.824;2023-05-10T00:42:13;4.15;;;0.60;;
78744;SDS011;68064;53.100;8.824;2023-05-10T00:43:14;4.78;;;0.50;;
78744;SDS011;68064;53.100;8.824;2023-05-10T00:44:15;4.80;;;0.77;;
78744;SDS011;68064;53.100;8.824;2023-05-10T00:45:17;6.50;;;0.80;;
78744;SDS011;68064;53.100;8.824;2023-05-10T00:47:19;5.28;;;0.70;;
78744;SDS011;68064;53.100;8.824;2023-05-10T00:49:22;3.80;;;0.40;;
78744;SDS011;68064;53.100;8.824;2023-05-10T00:50:24;5.53;;;0.65;;
78744;SDS011;68064;53.100;8.824;2023-05-10T00:51:25;5.38;;;0.43;;
78744;SDS011;68064;53.100;8.824;2023-05-10T00:53:27;4.00;;;0.40;;
78744;SDS011;68064;53.100;8.824;2023-05-10T00:54:29;4.32;;;0.40;;
78744;SDS011;68064;53.100;8.824;2023-05-10T00:55:31;4.22;;;0.75;;
78744;SDS011;68064;53.100;8.824;2023-05-10T00:57:33;6.15;;;0.63;;
78744;SDS011;68064;53.100;8.824;2023-05-10T00:59:35;4.75;;;0.50;;
78744;SDS011;68064;53.100;8.824;2023-05-10T01:00:36;4.25;;;0.60;;
78744;SDS011;68064;53.100;8.824;2023-05-10T01:01:38;4.60;;;0.63;;
78744;SDS011;68064;53.100;8.824;2023-05-10T01:02:39;4.43;;;0.70;;
78744;SDS011;68064;53.100;8.824;2023-05-10T01:03:41;5.78;;;0.88;;
78744;SDS011;68064;53.100;8.824;2023-05-10T01:04:44;4.15;;;0.52;;
78744;SDS011;68064;53.100;8.824;2023-05-10T01:05:45;4.13;;;0.60;;
78744;SDS011;68064;53.100;8.824;2023-05-10T01:06:46;4.35;;;0.50;;
78744;SDS011;68064;53.100;8.824;2023-05-10T01:07:47;4.32;;;0.55;;
78744;SDS011;68064;53.100;8.824;2023-05-10T01:08:48;4.75;;;0.40;;
78744;SDS011;68064;53.100;8.824;2023-05-10T01:09:50;4.97;;;0.40;;
78744;SDS011;68064;53.100;8.824;2023-05-10T01:11:51;4.22;;;0.40;;
78744;SDS011;68064;53.100;8.824;2023-05-10T01:12:54;4.60;;;0.60;;
78744;SDS011;68064;53.100;8.824;2023-05-10T01:13:56;5.07;;;0.55;;
78744;SDS011;68064;53.100;8.824;2023-05-10T01:14:59;6.88;;;1.10;;
78744;SDS011;68064;53.100;8.824;2023-05-10T01:16:01;2.90;;;0.32;;
78744;SDS011;68064;53.100;8.824;2023-05-10T01:17:02;5.07;;;0.40;;
78744;SDS011;68064;53.100;8.824;2023-05-10T01:18:05;5.78;;;0.70;;
78744;SDS011;68064;53.100;8.824;2023-05-10T01:19:11;3.50;;;0.38;;
78744;SDS011;68064;53.100;8.824;2023-05-10T01:20:18;4.68;;;0.57;;
78744;SDS011;68064;53.100;8.824;2023-05-10T01:21:22;4.72;;;0.80;;
78744;SDS011;68064;53.100;8.824;2023-05-10T01:22:39;4.22;;;0.40;;
78744;SDS011;68064;53.100;8.824;2023-05-10T01:24:03;5.60;;;0.80;;
78744;SDS011;68064;53.100;8.824;2023-05-10T01:25:32;3.33;;;0.50;;
78744;SDS011;68064;53.100;8.824;2023-05-10T01:27:02;4.93;;;0.52;;
78744;SDS011;68064;53.100;8.824;2023-05-10T01:28:47;4.25;;;0.45;;
78744;SDS011;68064;53.100;8.824;2023-05-10T01:32:05;3.95;;;0.43;;
78744;SDS011;68064;53.100;8.824;2023-05-10T01:33:17;4.53;;;0.80;;
78744;SDS011;68064;53.100;8.824;2023-05-10T01:34:25;4.90;;;0.55;;
78744;SDS011;68064;53.100;8.824;2023-05-10T01:35:39;3.38;;;0.40;;
78744;SDS011;68064;53.100;8.824;2023-05-10T01:36:45;4.70;;;0.40;;
78744;SDS011;68064;53.100;8.824;2023-05-10T01:37:56;4.63;;;0.82;;
78744;SDS011;68064;53.100;8.824;2023-05-10T01:39:06;5.40;;;0.50;;
78744;SDS011;68064;53.100;8.824;2023-05-10T01:40:14;4.53;;;0.50;;
78744;SDS011;68064;53.100;8.824;2023-05-10T01:41:22;4.90;;;0.50;;
78744;SDS011;68064;53.100;8.824;2023-05-10T01:42:29;4.25;;;0.40;;
78744;SDS011;68064;53.100;8.824;2023-05-10T01:43:37;3.78;;;0.43;;
78744;SDS011;68064;53.100;8.824;2023-05-10T01:44:48;4.32;;;0.40;;
78744;SDS011;68064;53.100;8.824;2023-05-10T01:45:58;6.82;;;0.52;;
78744;SDS011;68064;53.100;8.824;2023-05-10T01:47:04;3.58;;;0.50;;
78744;SDS011;68064;53.100;8.824;2023-05-10T01:48:10;5.05;;;0.60;;
78744;SDS011;68064;53.100;8.824;2023-05-10T01:49:16;5.45;;;0.40;;
78744;SDS011;68064;53.100;8.824;2023-05-10T01:50:24;2.92;;;0.40;;
78744;SDS011;68064;53.100;8.824;2023-05-10T01:51:31;4.30;;;0.40;;
78744;SDS011;68064;53.100;8.824;2023-05-10T01:52:41;5.25;;;0.75;;
78744;SDS011;68064;53.100;8.824;2023-05-10T01:53:43;3.97;;;0.65;;
78744;SDS011;68064;53.100;8.824;2023-05-10T01:54:49;3.50;;;0.38;;
78744;SDS011;68064;53.100;8.824;2023-05-10T01:55:54;3.60;;;0.40;;
78744;SDS011;68064;53.100;8.824;2023-05-10T01:56:59;5.07;;;0.57;;
78744;SDS011;68064;53.100;8.824;2023-05-10T01:58:04;4.00;;;0.52;;
78744;SDS011;68064;53.100;8.824;2023-05-10T01:59:11;4.47;;;0.40;;
78744;SDS011;68064;53.100;8.824;2023-05-10T02:00:16;5.95;;;0.60;;
78744;SDS011;68064;53.100;8.824;2023-05-10T02:01:19;4.35;;;0.45;;
78744;SDS011;68064;53.100;8.824;2023-05-10T02:02:23;3.65;;;0.40;;
78744;SDS011;68064;53.100;8.824;2023-05-10T02:03:25;4.18;;;0.50;;
78744;SDS011;68064;53.100;8.824;2023-05-10T02:04:28;3.45;;;0.38;;
78744;SDS011;68064;53.100;8.824;2023-05-10T02:05:30;3.58;;;0.50;;
78744;SDS011;68064;53.100;8.824;2023-05-10T02:06:33;5.15;;;0.57;;
78744;SDS011;68064;53.100;8.824;2023-05-10T02:07:35;5.07;;;0.45;;
78744;SDS011;68064;53.100;8.824;2023-05-10T02:08:38;6.70;;;0.60;;
78744;SDS011;68064;53.100;8.824;2023-05-10T02:09:40;3.08;;;0.40;;
78744;SDS011;68064;53.100;8.824;2023-05-10T02:10:45;5.97;;;0.50;;
78744;SDS011;68064;53.100;8.824;2023-05-10T02:11:47;6.35;;;0.75;;
78744;SDS011;68064;53.100;8.824;2023-05-10T02:12:49;5.00;;;0.50;;
78744;SDS011;68064;53.100;8.824;2023-05-10T02:13:53;6.82;;;1.25;;
78744;SDS011;68064;53.100;8.824;2023-05-10T02:14:56;4.97;;;0.43;;
78744;SDS011;68064;53.100;8.824;2023-05-10T02:16:00;4.13;;;0.40;;
78744;SDS011;68064;53.100;8.824;2023-05-10T02:17:04;4.78;;;0.55;;
78744;SDS011;68064;53.100;8.824;2023-05-10T02:18:09;4.82;;;0.60;;
78744;SDS011;68064;53.100;8.824;2023-05-10T02:19:12;4.90;;;0.50;;
78744;SDS011;68064;53.100;8.824;2023-05-10T02:20:16;4.97;;;0.73;;
78744;SDS011;68064;53.100;8.824;2023-05-10T02:21:19;4.80;;;0.88;;
78744;SDS011;68064;53.100;8.824;2023-05-10T02:22:22;4.07;;;0.40;;
78744;SDS011;68064;53.100;8.824;2023-05-10T02:23:24;6.35;;;0.43;;
78744;SDS011;68064;53.100;8.824;2023-05-10T02:24:26;4.20;;;0.45;;
78744;SDS011;68064;53.100;8.824;2023-05-10T02:25:29;5.82;;;0.50;;
78744;SDS011;68064;53.100;8.824;2023-05-10T02:26:32;4.93;;;0.50;;
78744;SDS011;68064;53.100;8.824;2023-05-10T02:27:35;5.05;;;0.70;;
78744;SDS011;68064;53.100;8.824;2023-05-10T02:28:37;4.15;;;0.50;;
78744;SDS011;68064;53.100;8.824;2023-05-10T02:29:40;3.85;;;0.43;;
78744;SDS011;68064;53.100;8.824;2023-05-10T02:30:42;8.68;;;1.00;;
78744;SDS011;68064;53.100;8.824;2023-05-10T02:31:44;3.83;;;0.35;;
78744;SDS011;68064;53.100;8.824;2023-05-10T02:32:46;4.38;;;0.55;;
78744;SDS011;68064;53.100;8.824;2023-05-10T02:33:50;4.05;;;0.60;;
78744;SDS011;68064;53.100;8.824;2023-05-10T02:34:52;3.85;;;0.43;;
78744;SDS011;68064;53.100;8.824;2023-05-10T02:35:55;5.60;;;0.45;;
78744;SDS011;68064;53.100;8.824;2023-05-10T02:36:57;4.03;;;0.70;;
78744;SDS011;68064;53.100;8.824;2023-05-10T02:38:00;3.33;;;0.40;;
78744;SDS011;68064;53.100;8.824;2023-05-10T02:39:02;4.88;;;0.52;;
78744;SDS011;68064;53.100;8.824;2023-05-10T02:40:04;4.03;;;0.40;;
78744;SDS011;68064;53.100;8.824;2023-05-10T02:41:07;4.53;;;0.47;;
78744;SDS011;68064;53.100;8.824;2023-05-10T02:42:11;4.85;;;0.52;;
78744;SDS011;68064;53.100;8.824;2023-05-10T02:44:19;5.78;;;0.52;;
78744;SDS011;68064;53.100;8.824;2023-05-10T02:45:23;5.20;;;0.93;;
78744;SDS011;68064;53.100;8.824;2023-05-10T02:46:28;6.35;;;0.70;;
78744;SDS011;68064;53.100;8.824;2023-05-10T02:47:29;4.88;;;0.40;;
78744;SDS011;68064;53.100;8.824;2023-05-10T02:49:32;5.18;;;0.60;;
78744;SDS011;68064;53.100;8.824;2023-05-10T02:50:34;5.05;;;0.98;;
78744;SDS011;68064;53.100;8.824;2023-05-10T02:51:37;5.40;;;0.77;;
78744;SDS011;68064;53.100;8.824;2023-05-10T02:52:44;4.18;;;0.60;;
78744;SDS011;68064;53.100;8.824;2023-05-10T02:53:47;4.93;;;0.40;;
78744;SDS011;68064;53.100;8.824;2023-05-10T02:54:52;5.65;;;0.63;;
78744;SDS011;68064;53.100;8.824;2023-05-10T02:55:57;7.05;;;0.60;;
78744;SDS011;68064;53.100;8.824;2023-05-10T02:57:00;4.47;;;0.40;;
78744;SDS011;68064;53.100;8.824;2023-05-10T02:58:04;5.18;;;0.73;;
78744;SDS011;68064;53.100;8.824;2023-05-10T02:59:05;4.75;;;0.50;;
78744;SDS011;68064;53.100;8.824;2023-05-10T03:00:07;4.97;;;0.50;;
78744;SDS011;68064;53.100;8.824;2023-05-10T03:01:08;4.20;;;0.50;;
78744;SDS011;68064;53.100;8.824;2023-05-10T03:02:10;4.68;;;0.50;;
78744;SDS011;68064;53.100;8.824;2023-05-10T03:03:12;5.05;;;0.73;;
78744;SDS011;68064;53.100;8.824;2023-05-10T03:04:13;4.90;;;0.60;;
78744;SDS011;68064;53.100;8.824;2023-05-10T03:05:16;6.00;;;0.55;;
78744;SDS011;68064;53.100;8.824;2023-05-10T03:06:17;5.00;;;0.40;;
78744;SDS011;68064;53.100;8.824;2023-05-10T03:07:18;4.82;;;0.60;;
78744;SDS011;68064;53.100;8.824;2023-05-10T03:08:19;5.80;;;0.80;;
78744;SDS011;68064;53.100;8.824;2023-05-10T03:10:21;4.15;;;0.40;;
78744;SDS011;68064;53.100;8.824;2023-05-10T03:11:30;4.32;;;0.50;;
78744;SDS011;68064;53.100;8.824;2023-05-10T03:13:56;4.65;;;0.60;;
78744;SDS011;68064;53.100;8.824;2023-05-10T03:15:11;4.00;;;0.60;;
78744;SDS011;68064;53.100;8.824;2023-05-10T03:16:20;5.30;;;0.47;;
78744;SDS011;68064;53.100;8.824;2023-05-10T03:18:39;3.90;;;0.75;;
78744;SDS011;68064;53.100;8.824;2023-05-10T03:19:46;5.07;;;0.77;;
78744;SDS011;68064;53.100;8.824;2023-05-10T03:20:54;4.32;;;0.50;;
78744;SDS011;68064;53.100;8.824;2023-05-10T03:21:59;5.03;;;0.80;;
78744;SDS011;68064;53.100;8.824;2023-05-10T03:23:06;5.05;;;0.80;;
78744;SDS011;68064;53.100;8.824;2023-05-10T03:24:14;4.93;;;0.50;;
78744;SDS011;68064;53.100;8.824;2023-05-10T03:25:16;4.80;;;0.40;;
78744;SDS011;68064;53.100;8.824;2023-05-10T03:26:23;4.07;;;0.40;;
78744;SDS011;68064;53.100;8.824;2023-05-10T03:27:26;6.07;;;0.63;;
78744;SDS011;68064;53.100;8.824;2023-05-10T03:28:28;4.03;;;0.50;;
78744;SDS011;68064;53.100;8.824;2023-05-10T03:29:31;5.35;;;0.70;;
78744;SDS011;68064;53.100;8.824;2023-05-10T03:30:33;4.55;;;0.60;;
78744;SDS011;68064;53.100;8.824;2023-05-10T03:31:35;5.03;;;0.63;;
78744;SDS011;68064;53.100;8.824;2023-05-10T03:32:36;3.72;;;0.50;;
78744;SDS011;68064;53.100;8.824;2023-05-10T03:33:45;4.18;;;0.50;;
78744;SDS011;68064;53.100;8.824;2023-05-10T03:34:46;4.68;;;0.68;;
78744;SDS011;68064;53.100;8.824;2023-05-10T03:35:47;4.22;;;0.52;;
78744;SDS011;68064;53.100;8.824;2023-05-10T03:36:50;6.28;;;0.82;;
78744;SDS011;68064;53.100;8.824;2023-05-10T03:37:51;5.50;;;0.50;;
78744;SDS011;68064;53.100;8.824;2023-05-10T03:38:52;5.05;;;0.50;;
78744;SDS011;68064;53.100;8.824;2023-05-10T03:39:53;5.15;;;0.50;;
78744;SDS011;68064;53.100;8.824;2023-05-10T03:41:55;5.45;;;0.60;;
78744;SDS011;68064;53.100;8.824;2023-05-10T03:42:56;6.22;;;1.27;;
78744;SDS011;68064;53.100;8.824;2023-05-10T03:44:58;4.15;;;0.52;;
78744;SDS011;68064;53.100;8.824;2023-05-10T03:46:01;5.35;;;0.80;;
78744;SDS011;68064;53.100;8.824;2023-05-10T03:47:02;4.65;;;0.60;;
78744;SDS011;68064;53.100;8.824;2023-05-10T03:48:03;4.63;;;0.60;;
78744;SDS011;68064;53.100;8.824;2023-05-10T03:49:05;5.32;;;0.45;;
78744;SDS011;68064;53.100;8.824;2023-05-10T03:50:06;5.93;;;0.65;;
78744;SDS011;68064;53.100;8.824;2023-05-10T03:51:08;6.45;;;0.80;;
78744;SDS011;68064;53.100;8.824;2023-05-10T03:52:10;7.47;;;0.85;;
78744;SDS011;68064;53.100;8.824;2023-05-10T03:53:11;5.03;;;0.47;;
78744;SDS011;68064;53.100;8.824;2023-05-10T03:54:12;5.75;;;0.88;;
78744;SDS011;68064;53.100;8.824;2023-05-10T03:55:14;3.80;;;0.52;;
78744;SDS011;68064;53.100;8.824;2023-05-10T03:56:15;6.38;;;0.52;;
78744;SDS011;68064;53.100;8.824;2023-05-10T03:57:16;4.70;;;0.60;;
78744;SDS011;68064;53.100;8.824;2023-05-10T03:58:17;4.45;;;0.55;;
78744;SDS011;68064;53.100;8.824;2023-05-10T03:59:18;5.50;;;0.88;;
78744;SDS011;68064;53.100;8.824;2023-05-10T04:00:19;4.95;;;0.50;;
78744;SDS011;68064;53.100;8.824;2023-05-10T04:01:20;4.88;;;0.65;;
78744;SDS011;68064;53.100;8.824;2023-05-10T04:02:21;7.85;;;0.80;;
78744;SDS011;68064;53.100;8.824;2023-05-10T04:03:22;5.00;;;0.93;;
78744;SDS011;68064;53.100;8.824;2023-05-10T04:04:24;5.45;;;0.77;;
78744;SDS011;68064;53.100;8.824;2023-05-10T04:05:25;4.85;;;0.90;;
78744;SDS011;68064;53.100;8.824;2023-05-10T04:06:26;4.57;;;0.80;;
78744;SDS011;68064;53.100;8.824;2023-05-10T04:07:28;4.10;;;0.40;;
78744;SDS011;68064;53.100;8.824;2023-05-10T04:08:29;4.45;;;0.50;;
78744;SDS011;68064;53.100;8.824;2023-05-10T04:10:31;5.50;;;0.50;;
78744;SDS011;68064;53.100;8.824;2023-05-10T04:12:33;3.83;;;0.50;;
78744;SDS011;68064;53.100;8.824;2023-05-10T04:13:34;5.65;;;0.95;;
78744;SDS011;68064;53.100;8.824;2023-05-10T04:15:36;5.15;;;0.60;;
78744;SDS011;68064;53.100;8.824;2023-05-10T04:16:37;5.03;;;0.60;;
78744;SDS011;68064;53.100;8.824;2023-05-10T04:17:38;4.78;;;0.63;;
78744;SDS011;68064;53.100;8.824;2023-05-10T04:18:39;4.47;;;0.50;;
78744;SDS011;68064;53.100;8.824;2023-05-10T04:19:40;7.32;;;1.15;;
78744;SDS011;68064;53.100;8.824;2023-05-10T04:20:41;4.75;;;0.57;;
78744;SDS011;68064;53.100;8.824;2023-05-10T04:21:42;5.38;;;0.70;;
78744;SDS011;68064;53.100;8.824;2023-05-10T04:22:45;5.35;;;0.88;;
78744;SDS011;68064;53.100;8.824;2023-05-10T04:23:46;5.30;;;0.85;;
78744;SDS011;68064;53.100;8.824;2023-05-10T04:24:47;5.05;;;0.93;;
78744;SDS011;68064;53.100;8.824;2023-05-10T04:25:48;6.38;;;0.70;;
78744;SDS011;68064;53.100;8.824;2023-05-10T04:26:49;5.25;;;0.85;;
78744;SDS011;68064;53.100;8.824;2023-05-10T04:27:50;4.90;;;0.70;;
78744;SDS011;68064;53.100;8.824;2023-05-10T04:28:52;5.35;;;0.98;;
78744;SDS011;68064;53.100;8.824;2023-05-10T04:31:00;5.45;;;0.88;;
78744;SDS011;68064;53.100;8.824;2023-05-10T04:32:01;5.65;;;0.90;;
78744;SDS011;68064;53.100;8.824;2023-05-10T04:34:03;5.18;;;0.80;;
78744;SDS011;68064;53.100;8.824;2023-05-10T04:36:05;4.57;;;0.63;;
78744;SDS011;68064;53.100;8.824;2023-05-10T04:37:07;5.55;;;0.95;;
78744;SDS011;68064;53.100;8.824;2023-05-10T04:38:09;6.32;;;0.95;;
78744;SDS011;68064;53.100;8.824;2023-05-10T04:39:10;5.72;;;0.93;;
78744;SDS011;68064;53.100;8.824;2023-05-10T04:40:11;4.95;;;0.45;;
78744;SDS011;68064;53.100;8.824;2023-05-10T04:41:13;5.57;;;0.70;;
78744;SDS011;68064;53.100;8.824;2023-05-10T04:42:14;8.98;;;1.17;;
78744;SDS011;68064;53.100;8.824;2023-05-10T04:43:15;5.38;;;0.82;;
78744;SDS011;68064;53.100;8.824;2023-05-10T04:44:16;5.32;;;0.75;;
78744;SDS011;68064;53.100;8.824;2023-05-10T04:45:17;5.15;;;0.70;;
78744;SDS011;68064;53.100;8.824;2023-05-10T04:46:18;4.47;;;0.52;;
78744;SDS011;68064;53.100;8.824;2023-05-10T04:47:19;4.93;;;0.60;;
78744;SDS011;68064;53.100;8.824;2023-05-10T04:48:20;4.78;;;0.50;;
78744;SDS011;68064;53.100;8.824;2023-05-10T04:49:21;6.13;;;0.80;;
78744;SDS011;68064;53.100;8.824;2023-05-10T04:50:23;6.75;;;0.80;;
78744;SDS011;68064;53.100;8.824;2023-05-10T04:52:24;5.07;;;0.80;;
78744;SDS011;68064;53.100;8.824;2023-05-10T04:53:28;6.63;;;1.27;;
78744;SDS011;68064;53.100;8.824;2023-05-10T04:54:30;6.28;;;1.00;;
78744;SDS011;68064;53.100;8.824;2023-05-10T04:55:31;6.75;;;0.65;;
78744;SDS011;68064;53.100;8.824;2023-05-10T04:56:32;5.40;;;1.00;;
78744;SDS011;68064;53.100;8.824;2023-05-10T04:57:33;5.93;;;1.00;;
78744;SDS011;68064;53.100;8.824;2023-05-10T04:58:34;6.93;;;1.00;;
78744;SDS011;68064;53.100;8.824;2023-05-10T04:59:35;5.90;;;0.95;;
78744;SDS011;68064;53.100;8.824;2023-05-10T05:00:36;5.05;;;0.70;;
78744;SDS011;68064;53.100;8.824;2023-05-10T05:01:37;8.52;;;0.95;;
78744;SDS011;68064;53.100;8.824;2023-05-10T05:02:41;5.57;;;0.70;;
78744;SDS011;68064;53.100;8.824;2023-05-10T05:03:43;6.10;;;0.90;;
78744;SDS011;68064;53.100;8.824;2023-05-10T05:04:44;5.00;;;1.00;;
78744;SDS011;68064;53.100;8.824;2023-05-10T05:05:45;6.82;;;1.40;;
78744;SDS011;68064;53.100;8.824;2023-05-10T05:06:46;10.18;;;1.13;;
78744;SDS011;68064;53.100;8.824;2023-05-10T05:07:47;4.50;;;0.73;;
78744;SDS011;68064;53.100;8.824;2023-05-10T05:08:49;5.47;;;1.08;;
78744;SDS011;68064;53.100;8.824;2023-05-10T05:09:50;5.90;;;0.93;;
78744;SDS011;68064;53.100;8.824;2023-05-10T05:10:51;5.38;;;0.80;;
78744;SDS011;68064;53.100;8.824;2023-05-10T05:11:53;6.70;;;1.40;;
78744;SDS011;68064;53.100;8.824;2023-05-10T05:12:54;6.40;;;1.08;;
78744;SDS011;68064;53.100;8.824;2023-05-10T05:13:55;5.32;;;0.70;;
78744;SDS011;68064;53.100;8.824;2023-05-10T05:14:56;6.43;;;0.98;;
78744;SDS011;68064;53.100;8.824;2023-05-10T05:17:00;4.68;;;0.70;;
78744;SDS011;68064;53.100;8.824;2023-05-10T05:18:01;5.50;;;0.63;;
78744;SDS011;68064;53.100;8.824;2023-05-10T05:19:02;5.53;;;0.90;;
78744;SDS011;68064;53.100;8.824;2023-05-10T05:20:04;7.45;;;1.48;;
78744;SDS011;68064;53.100;8.824;2023-05-10T05:21:13;8.27;;;1.25;;
78744;SDS011;68064;53.100;8.824;2023-05-10T05:22:14;5.60;;;1.15;;
78744;SDS011;68064;53.100;8.824;2023-05-10T05:23:15;5.90;;;1.00;;
78744;SDS011;68064;53.100;8.824;2023-05-10T05:24:18;6.47;;;1.10;;
78744;SDS011;68064;53.100;8.824;2023-05-10T05:25:19;6.40;;;1.08;;
78744;SDS011;68064;53.100;8.824;2023-05-10T05:26:20;6.03;;;1.02;;
78744;SDS011;68064;53.100;8.824;2023-05-10T05:27:21;6.38;;;1.15;;
78744;SDS011;68064;53.100;8.824;2023-05-10T05:29:23;6.60;;;0.80;;
78744;SDS011;68064;53.100;8.824;2023-05-10T05:30:24;6.45;;;1.30;;
78744;SDS011;68064;53.100;8.824;2023-05-10T05:31:25;6.53;;;1.27;;
78744;SDS011;68064;53.100;8.824;2023-05-10T05:33:27;6.45;;;1.10;;
78744;SDS011;68064;53.100;8.824;2023-05-10T05:35:29;5.03;;;0.77;;
78744;SDS011;68064;53.100;8.824;2023-05-10T05:37:31;7.25;;;1.40;;
78744;SDS011;68064;53.100;8.824;2023-05-10T05:38:32;5.38;;;0.90;;
78744;SDS011;68064;53.100;8.824;2023-05-10T05:41:39;7.88;;;1.95;;
78744;SDS011;68064;53.100;8.824;2023-05-10T05:42:40;6.68;;;1.00;;
78744;SDS011;68064;53.100;8.824;2023-05-10T05:43:41;7.18;;;1.58;;
78744;SDS011;68064;53.100;8.824;2023-05-10T05:44:42;6.03;;;0.63;;
78744;SDS011;68064;53.100;8.824;2023-05-10T05:45:43;6.43;;;1.00;;
78744;SDS011;68064;53.100;8.824;2023-05-10T05:46:44;6.65;;;1.00;;
78744;SDS011;68064;53.100;8.824;2023-05-10T05:47:45;5.65;;;0.95;;
78744;SDS011;68064;53.100;8.824;2023-05-10T05:48:46;6.00;;;0.98;;
78744;SDS011;68064;53.100;8.824;2023-05-10T05:50:48;5.82;;;1.20;;
78744;SDS011;68064;53.100;8.824;2023-05-10T05:52:50;6.10;;;0.90;;
78744;SDS011;68064;53.100;8.824;2023-05-10T05:53:51;7.13;;;1.45;;
78744;SDS011;68064;53.100;8.824;2023-05-10T05:54:53;6.85;;;1.30;;
78744;SDS011;68064;53.100;8.824;2023-05-10T05:55:55;6.57;;;1.30;;
78744;SDS011;68064;53.100;8.824;2023-05-10T05:56:57;6.03;;;1.13;;
78744;SDS011;68064;53.100;8.824;2023-05-10T05:57:59;5.72;;;0.82;;
78744;SDS011;68064;53.100;8.824;2023-05-10T06:00:01;8.00;;;1.20;;
78744;SDS011;68064;53.100;8.824;2023-05-10T06:01:02;6.60;;;1.10;;
78744;SDS011;68064;53.100;8.824;2023-05-10T06:02:03;7.47;;;1.50;;
78744;SDS011;68064;53.100;8.824;2023-05-10T06:03:04;6.00;;;1.05;;
78744;SDS011;68064;53.100;8.824;2023-05-10T06:04:05;6.32;;;1.30;;
78744;SDS011;68064;53.100;8.824;2023-05-10T06:05:06;7.18;;;1.10;;
78744;SDS011;68064;53.100;8.824;2023-05-10T06:06:08;5.82;;;1.27;;
78744;SDS011;68064;53.100;8.824;2023-05-10T06:07:09;5.88;;;0.85;;
78744;SDS011;68064;53.100;8.824;2023-05-10T06:08:10;6.68;;;1.23;;
78744;SDS011;68064;53.100;8.824;2023-05-10T06:10:14;10.02;;;2.63;;
78744;SDS011;68064;53.100;8.824;2023-05-10T06:11:15;6.25;;;1.08;;
78744;SDS011;68064;53.100;8.824;2023-05-10T06:12:16;7.25;;;1.30;;
78744;SDS011;68064;53.100;8.824;2023-05-10T06:13:17;6.70;;;1.23;;
78744;SDS011;68064;53.100;8.824;2023-05-10T06:14:19;5.88;;;1.10;;
78744;SDS011;68064;53.100;8.824;2023-05-10T06:15:21;7.00;;;1.77;;
78744;SDS011;68064;53.100;8.824;2023-05-10T06:16:22;6.78;;;1.25;;
78744;SDS011;68064;53.100;8.824;2023-05-10T06:17:23;6.70;;;1.02;;
78744;SDS011;68064;53.100;8.824;2023-05-10T06:18:24;6.55;;;1.38;;
78744;SDS011;68064;53.100;8.824;2023-05-10T06:20:26;6.20;;;1.33;;
78744;SDS011;68064;53.100;8.824;2023-05-10T06:21:27;7.97;;;2.30;;
78744;SDS011;68064;53.100;8.824;2023-05-10T06:22:28;7.82;;;1.70;;
78744;SDS011;68064;53.100;8.824;2023-05-10T06:24:30;6.50;;;1.50;;
78744;SDS011;68064;53.100;8.824;2023-05-10T06:26:33;5.80;;;1.08;;
78744;SDS011;68064;53.100;8.824;2023-05-10T06:28:35;6.78;;;1.42;;
78744;SDS011;68064;53.100;8.824;2023-05-10T06:30:37;5.82;;;0.90;;
78744;SDS011;68064;53.100;8.824;2023-05-10T06:31:38;8.02;;;1.20;;
78744;SDS011;68064;53.100;8.824;2023-05-10T06:32:39;6.60;;;1.13;;
78744;SDS011;68064;53.100;8.824;2023-05-10T06:33:40;6.80;;;1.60;;
78744;SDS011;68064;53.100;8.824;2023-05-10T06:34:41;7.97;;;1.17;;
78744;SDS011;68064;53.100;8.824;2023-05-10T06:35:42;6.32;;;0.93;;
78744;SDS011;68064;53.100;8.824;2023-05-10T06:36:43;5.95;;;1.40;;
78744;SDS011;68064;53.100;8.824;2023-05-10T06:38:45;5.93;;;1.02;;
78744;SDS011;68064;53.100;8.824;2023-05-10T06:39:46;7.13;;;1.15;;
78744;SDS011;68064;53.100;8.824;2023-05-10T06:40:49;6.65;;;1.27;;
78744;SDS011;68064;53.100;8.824;2023-05-10T06:41:50;9.70;;;2.45;;
78744;SDS011;68064;53.100;8.824;2023-05-10T06:42:51;6.38;;;0.90;;
78744;SDS011;68064;53.100;8.824;2023-05-10T06:43:52;7.60;;;1.50;;
78744;SDS011;68064;53.100;8.824;2023-05-10T06:45:54;6.38;;;1.05;;
78744;SDS011;68064;53.100;8.824;2023-05-10T06:46:55;8.73;;;1.50;;
78744;SDS011;68064;53.100;8.824;2023-05-10T06:47:56;9.02;;;1.40;;
78744;SDS011;68064;53.100;8.824;2023-05-10T06:48:57;6.47;;;1.45;;
78744;SDS011;68064;53.100;8.824;2023-05-10T06:49:58;6.68;;;1.42;;
78744;SDS011;68064;53.100;8.824;2023-05-10T06:50:59;6.20;;;1.27;;
78744;SDS011;68064;53.100;8.824;2023-05-10T06:52:00;6.97;;;1.80;;
78744;SDS011;68064;53.100;8.824;2023-05-10T06:53:01;6.88;;;1.42;;
78744;SDS011;68064;53.100;8.824;2023-05-10T06:54:02;6.68;;;1.48;;
78744;SDS011;68064;53.100;8.824;2023-05-10T06:55:04;7.78;;;2.38;;
78744;SDS011;68064;53.100;8.824;2023-05-10T06:56:07;7.60;;;1.27;;
78744;SDS011;68064;53.100;8.824;2023-05-10T06:57:08;7.68;;;1.63;;
78744;SDS011;68064;53.100;8.824;2023-05-10T06:59:10;5.43;;;0.90;;
78744;SDS011;68064;53.100;8.824;2023-05-10T07:00:11;5.65;;;1.20;;
78744;SDS011;68064;53.100;8.824;2023-05-10T07:01:13;7.35;;;1.60;;
78744;SDS011;68064;53.100;8.824;2023-05-10T07:02:14;6.35;;;1.10;;
78744;SDS011;68064;53.100;8.824;2023-05-10T07:03:15;5.22;;;1.00;;
78744;SDS011;68064;53.100;8.824;2023-05-10T07:04:16;7.40;;;1.80;;
78744;SDS011;68064;53.100;8.824;2023-05-10T07:05:17;6.90;;;1.58;;
78744;SDS011;68064;53.100;8.824;2023-05-10T07:06:18;6.35;;;1.30;;
78744;SDS011;68064;53.100;8.824;2023-05-10T07:07:20;7.25;;;1.35;;